createdAt,value
2019-01-18T00:00:40.411Z,992.77
2019-01-18T00:01:37.613Z,992.79
2019-01-18T00:02:34.538Z,992.73
2019-01-18T00:03:31.623Z,992.79
2019-01-18T00:04:28.675Z,992.83
2019-01-18T00:05:25.743Z,992.85
2019-01-18T00:06:22.807Z,992.82
2019-01-18T00:07:19.863Z,992.78
2019-01-18T00:08:17.934Z,992.73
2019-01-18T00:09:14.001Z,992.78
2019-01-18T00:10:11.070Z,992.77
2019-01-18T00:11:08.130Z,992.81
2019-01-18T00:12:06.187Z,992.82
2019-01-18T00:13:03.263Z,992.75
2019-01-18T00:13:59.323Z,992.83
2019-01-18T00:14:57.423Z,992.89
2019-01-18T00:15:53.653Z,992.84
2019-01-18T00:16:50.536Z,992.80
2019-01-18T00:17:47.622Z,992.78
2019-01-18T00:18:44.667Z,992.88
2019-01-18T00:19:41.750Z,992.80
2019-01-18T00:20:38.878Z,992.96
2019-01-18T00:21:35.879Z,992.88
2019-01-18T00:22:32.933Z,992.89
2019-01-18T00:23:30.006Z,992.85
2019-01-18T00:24:27.060Z,992.98
2019-01-18T00:25:24.126Z,992.87
2019-01-18T00:26:21.249Z,992.89
2019-01-18T00:27:18.253Z,992.81
2019-01-18T00:28:15.323Z,992.99
2019-01-18T00:29:12.399Z,992.90
2019-01-18T00:30:09.621Z,992.95
2019-01-18T00:31:06.534Z,992.85
2019-01-18T00:32:03.612Z,992.98
2019-01-18T00:33:00.668Z,992.93
2019-01-18T00:33:57.748Z,992.92
2019-01-18T00:34:54.814Z,992.91
2019-01-18T00:35:51.917Z,992.96
2019-01-18T00:36:48.936Z,993.02
2019-01-18T00:37:45.992Z,993.09
2019-01-18T00:38:43.375Z,993.01
2019-01-18T00:39:40.142Z,993.01
2019-01-18T00:40:37.208Z,993.06
2019-01-18T00:41:34.268Z,993.09
2019-01-18T00:42:31.320Z,993.10
2019-01-18T00:43:28.403Z,993.08
2019-01-18T00:44:25.468Z,993.12
2019-01-18T00:45:22.538Z,993.08
2019-01-18T00:46:19.608Z,993.17
2019-01-18T00:47:16.676Z,993.11
2019-01-18T00:48:13.736Z,993.22
2019-01-18T00:49:10.808Z,993.16
2019-01-18T00:50:07.860Z,993.14
2019-01-18T00:51:04.916Z,993.25
2019-01-18T00:52:01.990Z,993.18
2019-01-18T00:52:59.059Z,993.21
2019-01-18T00:53:56.140Z,993.25
2019-01-18T00:54:53.182Z,993.21
2019-01-18T00:55:50.266Z,993.17
2019-01-18T00:56:47.329Z,993.22
2019-01-18T00:57:44.401Z,993.21
2019-01-18T00:58:41.616Z,993.17
2019-01-18T00:59:38.521Z,993.22
2019-01-18T01:00:35.610Z,993.31
2019-01-18T01:01:32.663Z,993.24
2019-01-18T01:02:29.826Z,993.28
2019-01-18T01:03:26.794Z,993.24
2019-01-18T01:04:23.867Z,993.28
2019-01-18T01:05:20.931Z,993.25
2019-01-18T01:06:18.000Z,993.33
2019-01-18T01:07:15.076Z,993.34
2019-01-18T01:08:12.125Z,993.37
2019-01-18T01:09:09.191Z,993.33
2019-01-18T01:10:06.278Z,993.44
2019-01-18T01:11:03.336Z,993.40
2019-01-18T01:12:00.395Z,993.47
2019-01-18T01:12:57.626Z,993.56
2019-01-18T01:13:54.526Z,993.51
2019-01-18T01:14:51.647Z,993.58
2019-01-18T01:15:48.670Z,993.56
2019-01-18T01:16:45.725Z,993.58
2019-01-18T01:17:42.783Z,993.60
2019-01-18T01:18:39.863Z,993.61
2019-01-18T01:19:36.930Z,993.58
2019-01-18T01:20:34.002Z,993.57
2019-01-18T01:21:31.069Z,993.58
2019-01-18T01:22:28.146Z,993.58
2019-01-18T01:23:25.203Z,993.68
2019-01-18T01:24:22.267Z,993.68
2019-01-18T01:25:19.316Z,993.61
2019-01-18T01:26:16.392Z,993.70
2019-01-18T01:27:13.614Z,993.74
2019-01-18T01:28:10.523Z,993.76
2019-01-18T01:29:07.616Z,993.73
2019-01-18T01:30:04.708Z,993.80
2019-01-18T01:31:01.735Z,993.76
2019-01-18T01:31:58.783Z,993.79
2019-01-18T01:32:55.866Z,993.84
2019-01-18T01:33:52.924Z,993.74
2019-01-18T01:34:49.991Z,993.83
2019-01-18T01:35:47.051Z,993.89
2019-01-18T01:36:44.127Z,993.78
2019-01-18T01:37:41.198Z,993.68
2019-01-18T01:38:38.331Z,993.78
2019-01-18T01:39:35.320Z,993.87
2019-01-18T01:40:32.417Z,993.79
2019-01-18T01:41:29.461Z,993.85
2019-01-18T01:42:26.538Z,993.89
2019-01-18T01:43:23.628Z,993.88
2019-01-18T01:44:20.674Z,993.97
2019-01-18T01:45:17.722Z,994.04
2019-01-18T01:46:14.802Z,994.00
2019-01-18T01:47:11.853Z,994.15
2019-01-18T01:48:08.924Z,994.13
2019-01-18T01:49:05.984Z,994.05
2019-01-18T01:50:03.059Z,994.07
2019-01-18T01:51:00.153Z,994.12
2019-01-18T01:51:57.190Z,994.10
2019-01-18T01:52:54.263Z,994.16
2019-01-18T01:53:51.323Z,994.30
2019-01-18T01:54:48.389Z,994.20
2019-01-18T01:55:45.459Z,994.18
2019-01-18T01:56:42.520Z,994.26
2019-01-18T01:57:39.617Z,994.19
2019-01-18T01:58:36.651Z,994.26
2019-01-18T01:59:33.730Z,994.30
2019-01-18T02:00:30.789Z,994.28
2019-01-18T02:01:27.857Z,994.28
2019-01-18T02:02:24.930Z,994.23
2019-01-18T02:03:21.988Z,994.21
2019-01-18T02:04:19.055Z,994.32
2019-01-18T02:05:15.653Z,994.17
2019-01-18T02:06:13.202Z,994.28
2019-01-18T02:07:10.263Z,994.26
2019-01-18T02:08:07.325Z,994.39
2019-01-18T02:09:04.377Z,994.32
2019-01-18T02:10:02.450Z,994.23
2019-01-18T02:10:58.520Z,994.29
2019-01-18T02:11:55.601Z,994.26
2019-01-18T02:12:52.663Z,994.39
2019-01-18T02:13:49.726Z,994.27
2019-01-18T02:14:46.787Z,994.28
2019-01-18T02:15:43.853Z,994.32
2019-01-18T02:16:40.967Z,994.44
2019-01-18T02:17:38.028Z,994.51
2019-01-18T02:18:35.060Z,994.44
2019-01-18T02:19:32.129Z,994.32
2019-01-18T02:20:29.192Z,994.48
2019-01-18T02:21:26.263Z,994.46
2019-01-18T02:22:23.339Z,994.48
2019-01-18T02:23:20.392Z,994.41
2019-01-18T02:24:17.623Z,994.52
2019-01-18T02:25:14.534Z,994.45
2019-01-18T02:26:11.590Z,994.49
2019-01-18T02:27:08.657Z,994.46
2019-01-18T02:28:05.720Z,994.44
2019-01-18T02:29:02.819Z,994.55
2019-01-18T02:29:59.856Z,994.61
2019-01-18T02:30:56.935Z,994.58
2019-01-18T02:31:53.991Z,994.65
2019-01-18T02:32:51.051Z,994.69
2019-01-18T02:33:48.125Z,994.66
2019-01-18T02:34:45.192Z,994.59
2019-01-18T02:35:42.246Z,994.73
2019-01-18T02:36:39.342Z,994.68
2019-01-18T02:37:36.403Z,994.66
2019-01-18T02:38:33.593Z,994.69
2019-01-18T02:39:30.528Z,994.62
2019-01-18T02:40:27.580Z,994.67
2019-01-18T02:41:24.655Z,994.71
2019-01-18T02:42:21.712Z,994.70
2019-01-18T02:43:18.796Z,994.66
2019-01-18T02:44:15.856Z,994.70
2019-01-18T02:45:12.922Z,994.78
2019-01-18T02:46:09.985Z,994.75
2019-01-18T02:47:07.055Z,994.83
2019-01-18T02:48:04.122Z,994.79
2019-01-18T02:49:02.174Z,994.83
2019-01-18T02:49:58.244Z,994.79
2019-01-18T02:50:55.325Z,994.90
2019-01-18T02:51:52.377Z,994.94
2019-01-18T02:52:49.624Z,995.02
2019-01-18T02:53:46.521Z,995.01
2019-01-18T02:54:43.588Z,994.92
2019-01-18T02:55:40.658Z,995.00
2019-01-18T02:56:37.729Z,994.98
2019-01-18T02:57:34.788Z,995.01
2019-01-18T02:58:31.858Z,995.13
2019-01-18T02:59:28.929Z,995.12
2019-01-18T03:00:25.993Z,995.05
2019-01-18T03:01:23.044Z,995.05
2019-01-18T03:02:20.105Z,995.02
2019-01-18T03:03:17.189Z,995.15
2019-01-18T03:04:14.282Z,995.02
2019-01-18T03:05:11.316Z,995.09
2019-01-18T03:06:08.408Z,995.06
2019-01-18T03:07:06.442Z,995.07
2019-01-18T03:08:02.532Z,995.06
2019-01-18T03:08:59.586Z,995.02
2019-01-18T03:09:56.661Z,995.07
2019-01-18T03:10:53.747Z,995.02
2019-01-18T03:11:51.807Z,994.96
2019-01-18T03:12:47.868Z,995.00
2019-01-18T03:13:44.924Z,995.02
2019-01-18T03:14:41.998Z,995.03
2019-01-18T03:15:39.067Z,995.13
2019-01-18T03:16:36.613Z,995.13
2019-01-18T03:17:33.188Z,995.06
2019-01-18T03:18:30.254Z,995.09
2019-01-18T03:19:27.322Z,995.16
2019-01-18T03:20:24.398Z,995.15
2019-01-18T03:21:21.446Z,995.18
2019-01-18T03:22:18.510Z,995.23
2019-01-18T03:23:15.622Z,995.15
2019-01-18T03:24:12.657Z,995.24
2019-01-18T03:25:09.715Z,995.12
2019-01-18T03:26:06.776Z,995.25
2019-01-18T03:27:03.856Z,995.29
2019-01-18T03:28:00.927Z,995.39
2019-01-18T03:28:57.981Z,995.39
2019-01-18T03:29:55.065Z,995.49
2019-01-18T03:30:52.140Z,995.36
2019-01-18T03:31:49.210Z,995.52
2019-01-18T03:32:46.295Z,995.46
2019-01-18T03:33:43.338Z,995.52
2019-01-18T03:34:40.375Z,995.46
2019-01-18T03:35:37.603Z,995.51
2019-01-18T03:36:34.527Z,995.56
2019-01-18T03:37:31.618Z,995.54
2019-01-18T03:38:29.157Z,995.53
2019-01-18T03:39:25.713Z,995.49
2019-01-18T03:40:22.777Z,995.66
2019-01-18T03:41:19.871Z,995.60
2019-01-18T03:42:16.922Z,995.67
2019-01-18T03:43:13.998Z,995.63
2019-01-18T03:44:11.055Z,995.69
2019-01-18T03:45:08.114Z,995.67
2019-01-18T03:46:05.190Z,995.72
2019-01-18T03:47:02.252Z,995.63
2019-01-18T03:47:59.316Z,995.71
2019-01-18T03:48:56.395Z,995.65
2019-01-18T03:49:53.605Z,995.74
2019-01-18T03:50:50.522Z,995.72
2019-01-18T03:51:48.577Z,995.86
2019-01-18T03:52:44.674Z,995.74
2019-01-18T03:53:41.720Z,995.80
2019-01-18T03:54:38.784Z,995.79
2019-01-18T03:55:35.853Z,995.80
2019-01-18T03:56:32.924Z,995.77
2019-01-18T03:57:29.986Z,995.88
2019-01-18T03:58:27.059Z,995.88
2019-01-18T03:59:24.473Z,995.95
2019-01-18T04:00:26.301Z,995.96
2019-01-18T04:01:18.250Z,996.00
2019-01-18T04:02:15.316Z,995.90
2019-01-18T04:03:12.390Z,996.02
2019-01-18T04:04:09.614Z,995.99
2019-01-18T04:05:06.524Z,996.01
2019-01-18T04:06:03.644Z,996.02
2019-01-18T04:07:01.105Z,995.96
2019-01-18T04:07:57.731Z,996.01
2019-01-18T04:08:54.773Z,996.07
2019-01-18T04:09:51.856Z,995.94
2019-01-18T04:10:48.925Z,996.05
2019-01-18T04:11:45.988Z,996.01
2019-01-18T04:12:43.054Z,996.06
2019-01-18T04:13:39.620Z,996.07
2019-01-18T04:14:37.185Z,996.08
2019-01-18T04:15:34.242Z,996.09
2019-01-18T04:16:31.350Z,996.17
2019-01-18T04:17:28.387Z,996.14
2019-01-18T04:18:26.446Z,996.20
2019-01-18T04:19:22.524Z,996.19
2019-01-18T04:20:19.633Z,996.19
2019-01-18T04:21:16.678Z,996.16
2019-01-18T04:22:13.709Z,996.14
2019-01-18T04:23:10.788Z,996.23
2019-01-18T04:24:07.852Z,996.21
2019-01-18T04:25:04.930Z,996.21
2019-01-18T04:26:02.985Z,996.28
2019-01-18T04:26:59.048Z,996.25
2019-01-18T04:27:56.132Z,996.24
2019-01-18T04:28:53.188Z,996.29
2019-01-18T04:29:50.260Z,996.24
2019-01-18T04:30:47.337Z,996.30
2019-01-18T04:31:44.375Z,996.29
2019-01-18T04:32:41.471Z,996.30
2019-01-18T04:33:38.527Z,996.27
2019-01-18T04:34:35.599Z,996.36
2019-01-18T04:35:32.651Z,996.35
2019-01-18T04:36:29.753Z,996.38
2019-01-18T04:37:26.781Z,996.36
2019-01-18T04:38:23.854Z,996.42
2019-01-18T04:39:20.940Z,996.40
2019-01-18T04:40:17.968Z,996.40
2019-01-18T04:41:15.068Z,996.44
2019-01-18T04:42:12.183Z,996.44
2019-01-18T04:43:09.196Z,996.44
2019-01-18T04:44:06.256Z,996.42
2019-01-18T04:45:03.321Z,996.50
2019-01-18T04:46:00.407Z,996.47
2019-01-18T04:46:57.461Z,996.52
2019-01-18T04:47:54.515Z,996.60
2019-01-18T04:48:51.601Z,996.51
2019-01-18T04:49:48.659Z,996.58
2019-01-18T04:50:45.713Z,996.59
2019-01-18T04:51:42.788Z,996.63
2019-01-18T04:52:39.854Z,996.57
2019-01-18T04:53:36.936Z,996.57
2019-01-18T04:54:33.986Z,996.57
2019-01-18T04:55:31.048Z,996.63
2019-01-18T04:56:28.120Z,996.59
2019-01-18T04:57:25.182Z,996.58
2019-01-18T04:58:22.249Z,996.62
2019-01-18T04:59:19.305Z,996.61
2019-01-18T05:00:16.388Z,996.64
2019-01-18T05:01:13.466Z,996.74
2019-01-18T05:02:10.512Z,996.79
2019-01-18T05:03:07.599Z,996.82
2019-01-18T05:04:04.645Z,996.88
2019-01-18T05:05:01.708Z,996.83
2019-01-18T05:05:58.792Z,996.93
2019-01-18T05:06:55.851Z,996.94
2019-01-18T05:07:52.919Z,996.87
2019-01-18T05:08:49.983Z,996.87
2019-01-18T05:09:47.092Z,996.81
2019-01-18T05:10:44.113Z,996.93
2019-01-18T05:11:41.171Z,996.94
2019-01-18T05:12:38.255Z,996.97
2019-01-18T05:13:35.318Z,997.00
2019-01-18T05:14:32.390Z,996.97
2019-01-18T05:15:29.448Z,996.86
2019-01-18T05:16:26.502Z,996.99
2019-01-18T05:17:23.569Z,996.98
2019-01-18T05:18:20.660Z,996.99
2019-01-18T05:19:17.699Z,997.04
2019-01-18T05:20:14.786Z,997.07
2019-01-18T05:21:11.853Z,997.07
2019-01-18T05:22:08.907Z,997.01
2019-01-18T05:23:05.975Z,997.08
2019-01-18T05:24:04.051Z,997.14
2019-01-18T05:25:00.271Z,997.20
2019-01-18T05:25:57.195Z,997.14
2019-01-18T05:26:54.256Z,997.22
2019-01-18T05:27:51.315Z,997.15
2019-01-18T05:28:48.380Z,997.14
2019-01-18T05:29:44.949Z,997.19
2019-01-18T05:30:47.428Z,997.28
2019-01-18T05:31:39.618Z,997.17
2019-01-18T05:32:36.648Z,997.24
2019-01-18T05:33:33.717Z,997.21
2019-01-18T05:34:30.783Z,997.33
2019-01-18T05:35:27.846Z,997.31
2019-01-18T05:36:24.920Z,997.26
2019-01-18T05:37:21.991Z,997.32
2019-01-18T05:38:19.056Z,997.37
2019-01-18T05:39:16.120Z,997.39
2019-01-18T05:40:13.184Z,997.41
2019-01-18T05:41:10.262Z,997.35
2019-01-18T05:42:07.315Z,997.41
2019-01-18T05:43:04.392Z,997.41
2019-01-18T05:44:01.456Z,997.37
2019-01-18T05:44:58.527Z,997.47
2019-01-18T05:45:55.683Z,997.46
2019-01-18T05:46:53.730Z,997.44
2019-01-18T05:47:49.716Z,997.47
2019-01-18T05:48:46.775Z,997.46
2019-01-18T05:49:43.855Z,997.48
2019-01-18T05:50:40.924Z,997.49
2019-01-18T05:51:37.987Z,997.49
2019-01-18T05:52:35.045Z,997.53
2019-01-18T05:53:32.118Z,997.60
2019-01-18T05:54:29.614Z,997.66
2019-01-18T05:55:26.245Z,997.61
2019-01-18T05:56:23.312Z,997.65
2019-01-18T05:57:20.423Z,997.61
2019-01-18T05:58:17.445Z,997.68
2019-01-18T05:59:14.563Z,997.70
2019-01-18T06:00:11.605Z,997.72
2019-01-18T06:01:08.651Z,997.81
2019-01-18T06:02:05.712Z,997.70
2019-01-18T06:03:02.778Z,997.76
2019-01-18T06:03:59.848Z,997.87
2019-01-18T06:04:56.418Z,997.88
2019-01-18T06:05:53.992Z,997.95
2019-01-18T06:06:51.056Z,997.89
2019-01-18T06:07:48.124Z,997.86
2019-01-18T06:08:45.180Z,997.93
2019-01-18T06:09:42.239Z,997.95
2019-01-18T06:10:39.331Z,997.86
2019-01-18T06:11:36.393Z,997.93
2019-01-18T06:12:33.431Z,997.92
2019-01-18T06:13:31.659Z,997.97
2019-01-18T06:14:27.580Z,997.93
2019-01-18T06:15:24.682Z,998.02
2019-01-18T06:16:22.706Z,997.98
2019-01-18T06:17:18.796Z,997.93
2019-01-18T06:18:15.833Z,997.98
2019-01-18T06:19:12.931Z,997.94
2019-01-18T06:20:09.980Z,997.90
2019-01-18T06:21:07.045Z,997.95
2019-01-18T06:22:04.109Z,997.97
2019-01-18T06:23:01.183Z,998.04
2019-01-18T06:23:59.235Z,997.99
2019-01-18T06:24:55.308Z,998.00
2019-01-18T06:25:52.380Z,998.11
2019-01-18T06:26:49.447Z,998.02
2019-01-18T06:27:46.515Z,998.04
2019-01-18T06:28:44.604Z,998.04
2019-01-18T06:29:40.681Z,998.16
2019-01-18T06:30:37.718Z,998.04
2019-01-18T06:31:34.777Z,998.10
2019-01-18T06:32:31.868Z,998.15
2019-01-18T06:33:30.047Z,998.18
2019-01-18T06:34:26.031Z,998.15
2019-01-18T06:35:23.035Z,998.20
2019-01-18T06:36:20.113Z,998.21
2019-01-18T06:37:17.189Z,998.24
2019-01-18T06:38:14.243Z,998.22
2019-01-18T06:39:11.308Z,998.27
2019-01-18T06:40:08.384Z,998.27
2019-01-18T06:41:05.444Z,998.32
2019-01-18T06:42:02.513Z,998.27
2019-01-18T06:42:59.612Z,998.24
2019-01-18T06:43:56.660Z,998.35
2019-01-18T06:44:53.704Z,998.28
2019-01-18T06:45:50.283Z,998.24
2019-01-18T06:46:47.852Z,998.27
2019-01-18T06:47:44.914Z,998.29
2019-01-18T06:48:41.997Z,998.25
2019-01-18T06:49:39.038Z,998.28
2019-01-18T06:50:37.110Z,998.25
2019-01-18T06:51:33.204Z,998.32
2019-01-18T06:52:30.249Z,998.25
2019-01-18T06:53:27.332Z,998.21
2019-01-18T06:54:24.384Z,998.30
2019-01-18T06:55:21.450Z,998.26
2019-01-18T06:56:18.512Z,998.31
2019-01-18T06:57:15.608Z,998.35
2019-01-18T06:58:12.668Z,998.35
2019-01-18T06:59:09.708Z,998.40
2019-01-18T07:00:06.792Z,998.32
2019-01-18T07:01:08.452Z,998.41
2019-01-18T07:02:00.918Z,998.38
2019-01-18T07:02:57.982Z,998.46
2019-01-18T07:03:55.051Z,998.50
2019-01-18T07:04:52.131Z,998.53
2019-01-18T07:05:49.175Z,998.53
2019-01-18T07:06:46.232Z,998.62
2019-01-18T07:07:43.311Z,998.56
2019-01-18T07:08:40.385Z,998.65
2019-01-18T07:09:37.447Z,998.60
2019-01-18T07:10:35.600Z,998.67
2019-01-18T07:11:31.602Z,998.70
2019-01-18T07:12:28.637Z,998.57
2019-01-18T07:13:25.726Z,998.67
2019-01-18T07:14:22.782Z,998.56
2019-01-18T07:15:19.849Z,998.60
2019-01-18T07:16:16.896Z,998.67
2019-01-18T07:17:13.993Z,998.66
2019-01-18T07:18:11.048Z,998.67
2019-01-18T07:19:08.103Z,998.72
2019-01-18T07:20:05.189Z,998.77
2019-01-18T07:21:02.250Z,998.82
2019-01-18T07:21:59.313Z,998.80
2019-01-18T07:22:56.383Z,998.78
2019-01-18T07:23:53.598Z,998.86
2019-01-18T07:24:50.523Z,998.87
2019-01-18T07:25:47.609Z,998.89
2019-01-18T07:26:44.656Z,998.87
2019-01-18T07:27:41.713Z,998.93
2019-01-18T07:28:38.786Z,998.93
2019-01-18T07:29:35.837Z,998.93
2019-01-18T07:30:32.929Z,998.94
2019-01-18T07:31:29.980Z,998.99
2019-01-18T07:32:27.043Z,998.97
2019-01-18T07:33:24.116Z,999.02
2019-01-18T07:34:21.179Z,998.94
2019-01-18T07:35:18.251Z,999.02
2019-01-18T07:36:15.318Z,999.04
2019-01-18T07:37:12.382Z,999.10
2019-01-18T07:38:09.614Z,999.11
2019-01-18T07:39:06.510Z,999.11
2019-01-18T07:40:04.547Z,999.06
2019-01-18T07:41:00.650Z,999.16
2019-01-18T07:41:57.715Z,999.15
2019-01-18T07:42:54.785Z,999.16
2019-01-18T07:43:51.844Z,999.21
2019-01-18T07:44:48.913Z,999.16
2019-01-18T07:45:45.982Z,999.16
2019-01-18T07:46:43.051Z,999.23
2019-01-18T07:47:40.113Z,999.25
2019-01-18T07:48:37.186Z,999.28
2019-01-18T07:49:34.234Z,999.33
2019-01-18T07:50:31.311Z,999.39
2019-01-18T07:51:28.391Z,999.39
2019-01-18T07:52:25.601Z,999.46
2019-01-18T07:53:22.516Z,999.40
2019-01-18T07:54:19.899Z,999.47
2019-01-18T07:55:16.651Z,999.48
2019-01-18T07:56:13.717Z,999.57
2019-01-18T07:57:11.787Z,999.50
2019-01-18T07:58:07.866Z,999.55
2019-01-18T07:59:04.914Z,999.49
2019-01-18T08:00:02.006Z,999.48
2019-01-18T08:00:59.041Z,999.54
2019-01-18T08:01:56.142Z,999.54
2019-01-18T08:02:53.164Z,999.48
2019-01-18T08:03:50.252Z,999.48
2019-01-18T08:04:47.308Z,999.43
2019-01-18T08:05:44.373Z,999.49
2019-01-18T08:06:41.597Z,999.50
2019-01-18T08:07:38.515Z,999.58
2019-01-18T08:08:35.626Z,999.57
2019-01-18T08:09:32.630Z,999.59
2019-01-18T08:10:29.709Z,999.53
2019-01-18T08:11:26.777Z,999.54
2019-01-18T08:12:23.839Z,999.64
2019-01-18T08:13:20.906Z,999.50
2019-01-18T08:14:17.992Z,999.53
2019-01-18T08:15:15.035Z,999.56
2019-01-18T08:16:12.100Z,999.51
2019-01-18T08:17:10.169Z,999.49
2019-01-18T08:18:06.246Z,999.51
2019-01-18T08:19:03.305Z,999.58
2019-01-18T08:20:00.382Z,999.56
2019-01-18T08:20:57.447Z,999.53
2019-01-18T08:21:54.522Z,999.56
2019-01-18T08:22:51.597Z,999.57
2019-01-18T08:23:48.650Z,999.60
2019-01-18T08:24:45.708Z,999.63
2019-01-18T08:25:42.776Z,999.73
2019-01-18T08:26:39.878Z,999.77
2019-01-18T08:27:36.913Z,999.81
2019-01-18T08:28:33.969Z,999.71
2019-01-18T08:29:31.055Z,999.80
2019-01-18T08:30:28.127Z,999.84
2019-01-18T08:31:28.794Z,999.84
2019-01-18T08:32:22.295Z,999.81
2019-01-18T08:33:19.329Z,999.87
2019-01-18T08:34:16.491Z,999.91
2019-01-18T08:35:13.435Z,999.93
2019-01-18T08:36:10.513Z,999.97
2019-01-18T08:37:07.595Z,999.99
2019-01-18T08:38:04.646Z,999.95
2019-01-18T08:39:01.719Z,999.88
2019-01-18T08:39:58.796Z,1000.04
2019-01-18T08:40:56.841Z,999.96
2019-01-18T08:41:52.912Z,999.99
2019-01-18T08:42:49.981Z,1000.03
2019-01-18T08:43:47.048Z,1000.01
2019-01-18T08:44:44.119Z,1000.01
2019-01-18T08:45:41.178Z,1000.02
2019-01-18T08:46:38.259Z,1000.04
2019-01-18T08:47:35.318Z,1000.02
2019-01-18T08:48:32.379Z,1000.02
2019-01-18T08:49:29.528Z,1000.09
2019-01-18T08:50:26.522Z,1000.06
2019-01-18T08:51:23.579Z,1000.04
2019-01-18T08:52:20.648Z,1000.06
2019-01-18T08:53:17.720Z,999.97
2019-01-18T08:54:15.776Z,1002.15
2019-01-18T08:55:11.862Z,1000.06
2019-01-18T08:56:08.912Z,1000.07
2019-01-18T08:57:05.985Z,1000.12
2019-01-18T08:58:03.046Z,1000.14
2019-01-18T08:59:00.118Z,1000.20
2019-01-18T08:59:57.190Z,1000.19
2019-01-18T09:00:54.251Z,1000.18
2019-01-18T09:01:52.313Z,1000.20
2019-01-18T09:02:48.378Z,1000.30
2019-01-18T09:03:45.610Z,1000.26
2019-01-18T09:04:43.603Z,1000.33
2019-01-18T09:05:39.885Z,1000.24
2019-01-18T09:06:36.648Z,1000.22
2019-01-18T09:07:33.723Z,1000.28
2019-01-18T09:08:30.933Z,1000.33
2019-01-18T09:09:27.832Z,1000.39
2019-01-18T09:10:24.927Z,1000.32
2019-01-18T09:11:21.979Z,1000.29
2019-01-18T09:12:19.055Z,1000.36
2019-01-18T09:13:16.118Z,1000.37
2019-01-18T09:14:19.289Z,1000.37
2019-01-18T09:15:10.240Z,1000.40
2019-01-18T09:16:07.300Z,1000.45
2019-01-18T09:17:04.397Z,1000.46
2019-01-18T09:18:01.445Z,1000.47
2019-01-18T09:18:58.525Z,1000.44
2019-01-18T09:19:55.597Z,1000.37
2019-01-18T09:20:52.653Z,1000.45
2019-01-18T09:21:49.732Z,1000.55
2019-01-18T09:22:46.768Z,1000.55
2019-01-18T09:23:44.839Z,1000.60
2019-01-18T09:24:42.225Z,1000.54
2019-01-18T09:25:37.984Z,1000.62
2019-01-18T09:26:35.035Z,1000.52
2019-01-18T09:27:32.110Z,1000.62
2019-01-18T09:28:29.191Z,1000.59
2019-01-18T09:29:26.245Z,1000.63
2019-01-18T09:30:23.332Z,1000.58
2019-01-18T09:31:20.398Z,1000.65
2019-01-18T09:32:17.449Z,1000.64
2019-01-18T09:33:14.539Z,1000.66
2019-01-18T09:34:11.597Z,1000.68
2019-01-18T09:35:08.651Z,1000.66
2019-01-18T09:36:05.742Z,1000.70
2019-01-18T09:37:02.780Z,1000.63
2019-01-18T09:37:59.876Z,1000.66
2019-01-18T09:38:56.913Z,1000.73
2019-01-18T09:39:53.983Z,1000.65
2019-01-18T09:40:51.054Z,1000.71
2019-01-18T09:41:47.626Z,1000.69
2019-01-18T09:42:45.179Z,1000.75
2019-01-18T09:43:43.278Z,1000.71
2019-01-18T09:44:39.309Z,1000.77
2019-01-18T09:45:36.382Z,1000.80
2019-01-18T09:46:33.431Z,1000.84
2019-01-18T09:47:30.508Z,1000.79
2019-01-18T09:48:27.599Z,1000.84
2019-01-18T09:49:24.635Z,1000.73
2019-01-18T09:50:21.717Z,1000.85
2019-01-18T09:51:19.786Z,1000.85
2019-01-18T09:52:15.835Z,1000.86
2019-01-18T09:53:12.903Z,1000.81
2019-01-18T09:54:10.974Z,1000.85
2019-01-18T09:55:08.047Z,1000.88
2019-01-18T09:56:04.113Z,1000.93
2019-01-18T09:57:01.185Z,1000.85
2019-01-18T09:57:58.250Z,1000.87
2019-01-18T09:58:55.300Z,1000.97
2019-01-18T09:59:52.380Z,1000.92
2019-01-18T10:00:49.622Z,1000.88
2019-01-18T10:01:49.405Z,1000.98
2019-01-18T10:02:43.603Z,1001.00
2019-01-18T10:03:40.656Z,1000.96
2019-01-18T10:04:37.717Z,1000.99
2019-01-18T10:05:34.766Z,1001.03
2019-01-18T10:06:31.838Z,1001.02
2019-01-18T10:07:28.905Z,1001.00
2019-01-18T10:08:25.978Z,1001.04
2019-01-18T10:09:23.032Z,1001.04
2019-01-18T10:10:20.121Z,1001.00
2019-01-18T10:11:17.169Z,1000.99
2019-01-18T10:12:14.246Z,1000.98
2019-01-18T10:13:11.315Z,1000.92
2019-01-18T10:14:08.374Z,1000.92
2019-01-18T10:15:05.440Z,1000.88
2019-01-18T10:16:02.507Z,1000.93
2019-01-18T10:16:59.567Z,1000.90
2019-01-18T10:18:00.526Z,1000.88
2019-01-18T10:18:53.697Z,1000.92
2019-01-18T10:19:50.774Z,1000.95
2019-01-18T10:20:47.840Z,1000.93
2019-01-18T10:21:46.708Z,1000.90
2019-01-18T10:22:41.967Z,1001.00
2019-01-18T10:23:39.050Z,1000.92
2019-01-18T10:24:36.110Z,1000.92
2019-01-18T10:25:33.182Z,1000.92
2019-01-18T10:26:30.236Z,1001.01
2019-01-18T10:27:27.320Z,1000.98
2019-01-18T10:28:24.369Z,1001.03
2019-01-18T10:29:28.016Z,1000.93
2019-01-18T10:30:18.522Z,1000.92
2019-01-18T10:31:16.563Z,1000.96
2019-01-18T10:32:12.647Z,1000.96
2019-01-18T10:33:09.707Z,1001.03
2019-01-18T10:34:06.789Z,1000.96
2019-01-18T10:35:03.840Z,1000.98
2019-01-18T10:36:00.911Z,1000.94
2019-01-18T10:36:57.979Z,1000.90
2019-01-18T10:37:56.041Z,1000.89
2019-01-18T10:38:52.104Z,1000.92
2019-01-18T10:39:49.175Z,1000.89
2019-01-18T10:40:46.248Z,1000.86
2019-01-18T10:41:43.309Z,1000.90
2019-01-18T10:42:40.369Z,1000.84
2019-01-18T10:43:37.436Z,1000.96
2019-01-18T10:44:34.513Z,1000.95
2019-01-18T10:45:31.559Z,1000.86
2019-01-18T10:46:28.635Z,1000.89
2019-01-18T10:47:25.719Z,1000.82
2019-01-18T10:48:22.769Z,1000.91
2019-01-18T10:49:19.842Z,1000.91
2019-01-18T10:50:16.892Z,1000.91
2019-01-18T10:51:14.964Z,1000.87
2019-01-18T10:52:11.056Z,1000.91
2019-01-18T10:53:08.099Z,1000.97
2019-01-18T10:54:05.176Z,1000.89
2019-01-18T10:55:03.459Z,1000.90
2019-01-18T10:55:59.294Z,1000.94
2019-01-18T10:56:56.371Z,1000.91
2019-01-18T10:57:53.745Z,1000.83
2019-01-18T10:58:51.623Z,1000.87
2019-01-18T10:59:48.023Z,1000.89
2019-01-18T11:00:44.647Z,1000.90
2019-01-18T11:01:41.700Z,1000.89
2019-01-18T11:02:38.771Z,1000.95
2019-01-18T11:03:35.883Z,1000.88
2019-01-18T11:04:32.902Z,1000.94
2019-01-18T11:05:29.986Z,1000.95
2019-01-18T11:06:27.032Z,1000.88
2019-01-18T11:07:24.138Z,1000.91
2019-01-18T11:08:21.165Z,1000.88
2019-01-18T11:09:18.319Z,1000.97
2019-01-18T11:10:15.305Z,1000.89
2019-01-18T11:11:12.368Z,1000.90
2019-01-18T11:12:09.432Z,1000.92
2019-01-18T11:13:06.499Z,1000.87
2019-01-18T11:14:03.602Z,1000.86
2019-01-18T11:15:00.631Z,1000.89
2019-01-18T11:15:57.686Z,1000.91
2019-01-18T11:16:54.764Z,1000.89
2019-01-18T11:17:51.841Z,1000.95
2019-01-18T11:18:48.895Z,1001.03
2019-01-18T11:19:45.989Z,1000.97
2019-01-18T11:20:43.035Z,1001.02
2019-01-18T11:21:40.122Z,1001.08
2019-01-18T11:22:37.170Z,1001.09
2019-01-18T11:23:34.229Z,1001.14
2019-01-18T11:24:31.299Z,1001.19
2019-01-18T11:25:32.007Z,1001.09
2019-01-18T11:26:25.426Z,1001.07
2019-01-18T11:27:22.497Z,1001.07
2019-01-18T11:28:20.567Z,1001.08
2019-01-18T11:29:16.625Z,1001.12
2019-01-18T11:30:13.695Z,1001.10
2019-01-18T11:31:10.763Z,1001.03
2019-01-18T11:32:13.578Z,1001.01
2019-01-18T11:33:04.900Z,1001.07
2019-01-18T11:34:01.984Z,1001.00
2019-01-18T11:34:59.023Z,1001.02
2019-01-18T11:35:56.106Z,1001.07
2019-01-18T11:36:56.708Z,1001.11
2019-01-18T11:37:50.235Z,1001.10
2019-01-18T11:38:47.293Z,1001.16
2019-01-18T11:39:44.348Z,1001.02
2019-01-18T11:40:41.435Z,1001.09
2019-01-18T11:41:38.490Z,1001.07
2019-01-18T11:42:35.631Z,1001.07
2019-01-18T11:43:32.633Z,1000.98
2019-01-18T11:44:29.699Z,1000.99
2019-01-18T11:45:26.746Z,1001.00
2019-01-18T11:46:23.824Z,1000.98